Hauptseite
METAR-TAF:

METAR-TAF

Flughäfen :

Linton-on-Ouse, England

RAF Linton-on-Ouse

Breite: 54-03N, Länge: 001-15W, Höhe: 16 m

Beobachtung

Neuester Wetterbericht von vor 1 Stunde und 15 Minuten, um 22:50 UTC
Wind 4 kt aus Ost/Südost
Temperatur 4°C
Luftfeuchtigkeit 93%
Luftdruck 1019 hPa
Sichtweite 10 km oder mehr

METAR: EGXU 192250Z AUTO 11004KT 9999 // BKN025/// SCT042/// 04/03 Q1019

Zeit: 00:05 (00:05 UTC)


TAF: fehlend

Wetterbeobachtungen und Prognosen von mehr als 4000 Flughäfen (METAR und TAF Bericht).

Die verfügbaren Stationen werden durch gelbe und rote Markierungen auf der Karte dargestellt.

Führen Sie die Maus auf sie, um den Namen der Station zu sehen.

Darauf klicken, um die Beobachtung von Wetterbeobachtungen und Prognosen zu sehen.

Um die Karte zu ändern : klicken Sie auf den grünen Tasten mit einem schwarzen Kreuz Zum Vergrößern, auf den grünen Button mit einem Gedankenstrich zu verkleinern, oder auf die grünen Pfeile für benachbarte Karten.


METAR-TAF: